Ballston Center, New York
Current Conditions -  °F | °C
As of 9:49 AM on Wednesday 22 Oct 2014 (Local Time) from KSCH Reporting Station
Overcast Overcast  
Wind Chill: 52°   Ceiling: 2600
Heat Index: 52°   Visibility: 10mi
Dew Point: 45°   Wind: 13mph
Humidity: 76%   Direction: 40°NE
Pressure: 30.1"   Gusts: 16mph
Location:  43.002°N, 73.8759°W
Report Text: KSCH 221349Z 04011G14KT 10SM OVC026 11/07 A3010
Loading
Personal Weather Stations






























Interactive Weather Map
Tropical Storm Tracking
New forecast layout! Learn more

10-Day Weather Forecast

Advertisements
Track Severe Weather on mobile